sensor_id;sensor_type;location;lat;lon;timestamp;pressure;altitude;pressure_sealevel;temperature;humidity
16544;BME280;8384;47.996;7.786;2022-10-19T00:03:39;99522.84;;;12.09;100.00
16544;BME280;8384;47.996;7.786;2022-10-19T00:08:39;99605.63;;;12.51;100.00
16544;BME280;8384;47.996;7.786;2022-10-19T00:11:04;99617.69;;;12.50;100.00
16544;BME280;8384;47.996;7.786;2022-10-19T00:13:30;99637.94;;;12.66;100.00
16544;BME280;8384;47.996;7.786;2022-10-19T00:15:55;99559.19;;;12.22;100.00
16544;BME280;8384;47.996;7.786;2022-10-19T00:18:21;99627.06;;;12.54;100.00
16544;BME280;8384;47.996;7.786;2022-10-19T00:20:46;99559.19;;;12.22;100.00
16544;BME280;8384;47.996;7.786;2022-10-19T00:23:11;99621.84;;;12.52;100.00
16544;BME280;8384;47.996;7.786;2022-10-19T00:25:36;99598.94;;;12.41;100.00
16544;BME280;8384;47.996;7.786;2022-10-19T00:28:03;99618.97;;;12.42;100.00
16544;BME280;8384;47.996;7.786;2022-10-19T00:30:28;99630.59;;;12.32;100.00
16544;BME280;8384;47.996;7.786;2022-10-19T00:32:53;99598.88;;;12.19;100.00
16544;BME280;8384;47.996;7.786;2022-10-19T00:35:19;99625.72;;;12.34;100.00
16544;BME280;8384;47.996;7.786;2022-10-19T00:37:44;99623.72;;;12.29;100.00
16544;BME280;8384;47.996;7.786;2022-10-19T00:40:10;99556.78;;;11.74;100.00
16544;BME280;8384;47.996;7.786;2022-10-19T00:42:35;99605.53;;;12.23;100.00
16544;BME280;8384;47.996;7.786;2022-10-19T00:45:05;99601.63;;;12.19;100.00
16544;BME280;8384;47.996;7.786;2022-10-19T00:47:31;99618.47;;;12.28;100.00
16544;BME280;8384;47.996;7.786;2022-10-19T00:49:57;99620.31;;;12.22;100.00
16544;BME280;8384;47.996;7.786;2022-10-19T00:52:23;99575.78;;;11.81;100.00
16544;BME280;8384;47.996;7.786;2022-10-19T00:54:51;99626.06;;;12.04;100.00
16544;BME280;8384;47.996;7.786;2022-10-19T00:57:17;99630.22;;;12.06;100.00
16544;BME280;8384;47.996;7.786;2022-10-19T00:59:44;99629.72;;;12.09;100.00
16544;BME280;8384;47.996;7.786;2022-10-19T01:02:10;99606.53;;;12.00;100.00
16544;BME280;8384;47.996;7.786;2022-10-19T01:04:39;99634.59;;;12.07;100.00
16544;BME280;8384;47.996;7.786;2022-10-19T01:07:06;99611.00;;;11.89;100.00
16544;BME280;8384;47.996;7.786;2022-10-19T01:09:33;99630.13;;;12.01;100.00
16544;BME280;8384;47.996;7.786;2022-10-19T01:12:08;99632.50;;;11.97;100.00
16544;BME280;8384;47.996;7.786;2022-10-19T01:14:37;99636.69;;;12.00;100.00
16544;BME280;8384;47.996;7.786;2022-10-19T01:17:30;99631.84;;;11.90;100.00
16544;BME280;8384;47.996;7.786;2022-10-19T01:20:22;99631.81;;;11.73;100.00
16544;BME280;8384;47.996;7.786;2022-10-19T01:23:34;99635.22;;;11.80;100.00
16544;BME280;8384;47.996;7.786;2022-10-19T01:29:04;99636.41;;;11.84;100.00
16544;BME280;8384;47.996;7.786;2022-10-19T01:31:45;99619.63;;;11.81;100.00
16544;BME280;8384;47.996;7.786;2022-10-19T01:34:24;99622.81;;;12.07;100.00
16544;BME280;8384;47.996;7.786;2022-10-19T01:44:37;99624.81;;;12.28;100.00
16544;BME280;8384;47.996;7.786;2022-10-19T01:47:09;99625.31;;;12.25;100.00
16544;BME280;8384;47.996;7.786;2022-10-19T01:49:55;99619.31;;;12.28;100.00
16544;BME280;8384;47.996;7.786;2022-10-19T01:52:22;99616.34;;;12.69;100.00
16544;BME280;8384;47.996;7.786;2022-10-19T01:54:53;99614.41;;;12.70;100.00
16544;BME280;8384;47.996;7.786;2022-10-19T01:57:24;99617.56;;;12.62;100.00
16544;BME280;8384;47.996;7.786;2022-10-19T01:59:52;99598.09;;;12.41;100.00
16544;BME280;8384;47.996;7.786;2022-10-19T02:02:19;99595.88;;;12.38;100.00
16544;BME280;8384;47.996;7.786;2022-10-19T02:04:47;99617.56;;;12.62;100.00
16544;BME280;8384;47.996;7.786;2022-10-19T02:07:14;99587.41;;;12.39;100.00
16544;BME280;8384;47.996;7.786;2022-10-19T02:09:40;99617.84;;;12.60;100.00
16544;BME280;8384;47.996;7.786;2022-10-19T02:12:08;99594.66;;;12.51;100.00
16544;BME280;8384;47.996;7.786;2022-10-19T02:14:41;99613.00;;;12.67;100.00
16544;BME280;8384;47.996;7.786;2022-10-19T02:17:14;99596.72;;;12.60;100.00
16544;BME280;8384;47.996;7.786;2022-10-19T02:19:41;99602.53;;;12.86;100.00
16544;BME280;8384;47.996;7.786;2022-10-19T02:22:07;99570.53;;;12.92;100.00
16544;BME280;8384;47.996;7.786;2022-10-19T02:24:33;99596.16;;;13.03;100.00
16544;BME280;8384;47.996;7.786;2022-10-19T02:26:58;99574.59;;;12.89;100.00
16544;BME280;8384;47.996;7.786;2022-10-19T02:29:25;99599.91;;;13.19;100.00
16544;BME280;8384;47.996;7.786;2022-10-19T02:31:51;99599.81;;;13.36;100.00
16544;BME280;8384;47.996;7.786;2022-10-19T02:34:16;99598.97;;;13.35;100.00
16544;BME280;8384;47.996;7.786;2022-10-19T02:36:41;99582.59;;;13.18;100.00
16544;BME280;8384;47.996;7.786;2022-10-19T02:39:07;99595.19;;;13.14;100.00
16544;BME280;8384;47.996;7.786;2022-10-19T02:41:38;99580.72;;;12.97;100.00
16544;BME280;8384;47.996;7.786;2022-10-19T02:44:14;99590.16;;;13.06;100.00
16544;BME280;8384;47.996;7.786;2022-10-19T02:46:49;99581.50;;;12.92;100.00
16544;BME280;8384;47.996;7.786;2022-10-19T02:49:16;99577.19;;;13.01;100.00
16544;BME280;8384;47.996;7.786;2022-10-19T02:52:06;99593.47;;;13.08;100.00
16544;BME280;8384;47.996;7.786;2022-10-19T02:54:32;99599.53;;;13.10;100.00
16544;BME280;8384;47.996;7.786;2022-10-19T02:56:57;99595.59;;;13.01;100.00
16544;BME280;8384;47.996;7.786;2022-10-19T02:59:23;99593.94;;;13.00;100.00
16544;BME280;8384;47.996;7.786;2022-10-19T03:01:49;99592.34;;;13.04;100.00
16544;BME280;8384;47.996;7.786;2022-10-19T03:04:15;99581.34;;;13.04;100.00
16544;BME280;8384;47.996;7.786;2022-10-19T03:06:41;99554.81;;;12.87;100.00
16544;BME280;8384;47.996;7.786;2022-10-19T03:09:06;99562.09;;;12.99;100.00
16544;BME280;8384;47.996;7.786;2022-10-19T03:11:33;99590.25;;;13.16;100.00
16544;BME280;8384;47.996;7.786;2022-10-19T03:13:59;99594.59;;;13.12;100.00
16544;BME280;8384;47.996;7.786;2022-10-19T03:16:24;99586.94;;;13.14;100.00
16544;BME280;8384;47.996;7.786;2022-10-19T03:18:50;99585.63;;;13.17;100.00
16544;BME280;8384;47.996;7.786;2022-10-19T03:21:16;99580.22;;;13.27;100.00
16544;BME280;8384;47.996;7.786;2022-10-19T03:23:41;99577.53;;;13.32;100.00
16544;BME280;8384;47.996;7.786;2022-10-19T03:26:07;99582.16;;;13.27;100.00
16544;BME280;8384;47.996;7.786;2022-10-19T03:28:34;99578.94;;;13.35;100.00
16544;BME280;8384;47.996;7.786;2022-10-19T03:30:59;99581.06;;;13.28;100.00
16544;BME280;8384;47.996;7.786;2022-10-19T03:33:24;99578.38;;;13.33;100.00
16544;BME280;8384;47.996;7.786;2022-10-19T03:35:50;99572.53;;;13.24;100.00
16544;BME280;8384;47.996;7.786;2022-10-19T03:38:15;99566.25;;;13.29;100.00
16544;BME280;8384;47.996;7.786;2022-10-19T03:40:41;99575.06;;;13.31;100.00
16544;BME280;8384;47.996;7.786;2022-10-19T03:43:06;99567.56;;;13.26;100.00
16544;BME280;8384;47.996;7.786;2022-10-19T03:45:32;99542.31;;;13.24;100.00
16544;BME280;8384;47.996;7.786;2022-10-19T03:47:57;99571.16;;;13.49;100.00
16544;BME280;8384;47.996;7.786;2022-10-19T03:50:22;99572.53;;;13.52;100.00
16544;BME280;8384;47.996;7.786;2022-10-19T03:52:48;99566.53;;;13.55;100.00
16544;BME280;8384;47.996;7.786;2022-10-19T03:55:14;99573.06;;;13.48;100.00
16544;BME280;8384;47.996;7.786;2022-10-19T03:57:40;99572.31;;;13.31;100.00
16544;BME280;8384;47.996;7.786;2022-10-19T04:00:06;99566.69;;;13.20;100.00
16544;BME280;8384;47.996;7.786;2022-10-19T04:02:32;99561.56;;;13.29;100.00
16544;BME280;8384;47.996;7.786;2022-10-19T04:04:57;99532.88;;;13.15;100.00
16544;BME280;8384;47.996;7.786;2022-10-19T04:07:22;99553.50;;;13.17;100.00
16544;BME280;8384;47.996;7.786;2022-10-19T04:09:48;99538.09;;;13.16;100.00
16544;BME280;8384;47.996;7.786;2022-10-19T04:12:13;99558.53;;;13.26;100.00
16544;BME280;8384;47.996;7.786;2022-10-19T04:14:38;99528.94;;;13.05;100.00
16544;BME280;8384;47.996;7.786;2022-10-19T04:17:03;99535.47;;;13.27;100.00
16544;BME280;8384;47.996;7.786;2022-10-19T04:19:30;99566.94;;;13.41;100.00
16544;BME280;8384;47.996;7.786;2022-10-19T04:21:55;99546.34;;;13.16;100.00
16544;BME280;8384;47.996;7.786;2022-10-19T04:24:21;99567.38;;;13.33;100.00
16544;BME280;8384;47.996;7.786;2022-10-19T04:26:51;99571.00;;;13.39;100.00
16544;BME280;8384;47.996;7.786;2022-10-19T04:29:19;99558.75;;;12.97;100.00
16544;BME280;8384;47.996;7.786;2022-10-19T04:31:46;99572.22;;;12.98;100.00
16544;BME280;8384;47.996;7.786;2022-10-19T04:34:12;99558.56;;;13.03;100.00
16544;BME280;8384;47.996;7.786;2022-10-19T04:36:37;99568.16;;;13.01;100.00
16544;BME280;8384;47.996;7.786;2022-10-19T04:39:03;99567.44;;;12.88;100.00
16544;BME280;8384;47.996;7.786;2022-10-19T04:41:29;99562.59;;;12.96;100.00
16544;BME280;8384;47.996;7.786;2022-10-19T04:43:57;99565.59;;;12.94;100.00
16544;BME280;8384;47.996;7.786;2022-10-19T04:46:24;99563.22;;;13.03;100.00
16544;BME280;8384;47.996;7.786;2022-10-19T04:48:50;99559.22;;;12.88;100.00
16544;BME280;8384;47.996;7.786;2022-10-19T04:51:16;99556.03;;;12.74;100.00
16544;BME280;8384;47.996;7.786;2022-10-19T04:53:42;99551.13;;;12.77;100.00
16544;BME280;8384;47.996;7.786;2022-10-19T04:56:12;99539.84;;;12.73;100.00
16544;BME280;8384;47.996;7.786;2022-10-19T04:58:37;99550.84;;;13.00;100.00
16544;BME280;8384;47.996;7.786;2022-10-19T05:01:20;99545.41;;;13.05;100.00
16544;BME280;8384;47.996;7.786;2022-10-19T05:03:46;99534.34;;;12.95;100.00
16544;BME280;8384;47.996;7.786;2022-10-19T05:06:13;99532.84;;;13.10;100.00
16544;BME280;8384;47.996;7.786;2022-10-19T05:08:38;99538.03;;;13.06;100.00
16544;BME280;8384;47.996;7.786;2022-10-19T05:11:06;99537.97;;;13.01;100.00
16544;BME280;8384;47.996;7.786;2022-10-19T05:13:32;99544.88;;;12.81;100.00
16544;BME280;8384;47.996;7.786;2022-10-19T05:15:59;99546.34;;;12.89;100.00
16544;BME280;8384;47.996;7.786;2022-10-19T05:18:25;99533.84;;;12.76;100.00
16544;BME280;8384;47.996;7.786;2022-10-19T05:20:50;99547.13;;;12.84;100.00
16544;BME280;8384;47.996;7.786;2022-10-19T05:23:16;99540.84;;;12.89;100.00
16544;BME280;8384;47.996;7.786;2022-10-19T05:25:41;99544.16;;;12.91;100.00
16544;BME280;8384;47.996;7.786;2022-10-19T05:28:06;99532.13;;;12.70;100.00
16544;BME280;8384;47.996;7.786;2022-10-19T05:30:31;99547.06;;;12.79;100.00
16544;BME280;8384;47.996;7.786;2022-10-19T05:32:57;99551.06;;;12.71;100.00
16544;BME280;8384;47.996;7.786;2022-10-19T05:35:22;99534.09;;;12.52;100.00
16544;BME280;8384;47.996;7.786;2022-10-19T05:37:47;99545.19;;;12.63;100.00
16544;BME280;8384;47.996;7.786;2022-10-19T05:40:13;99557.59;;;12.65;100.00
16544;BME280;8384;47.996;7.786;2022-10-19T05:42:38;99547.16;;;12.45;100.00
16544;BME280;8384;47.996;7.786;2022-10-19T05:45:03;99554.25;;;12.63;100.00
16544;BME280;8384;47.996;7.786;2022-10-19T05:47:29;99551.06;;;12.49;100.00
16544;BME280;8384;47.996;7.786;2022-10-19T05:49:54;99552.59;;;12.62;100.00
16544;BME280;8384;47.996;7.786;2022-10-19T05:52:19;99521.13;;;12.48;100.00
16544;BME280;8384;47.996;7.786;2022-10-19T05:54:45;99506.66;;;12.30;100.00
16544;BME280;8384;47.996;7.786;2022-10-19T05:57:10;99551.00;;;12.66;100.00
16544;BME280;8384;47.996;7.786;2022-10-19T05:59:35;99530.66;;;12.62;100.00
16544;BME280;8384;47.996;7.786;2022-10-19T06:02:00;99531.66;;;12.56;100.00
16544;BME280;8384;47.996;7.786;2022-10-19T06:04:26;99545.84;;;12.70;100.00
16544;BME280;8384;47.996;7.786;2022-10-19T06:06:51;99545.91;;;12.75;100.00
16544;BME280;8384;47.996;7.786;2022-10-19T06:09:16;99534.72;;;12.82;100.00
16544;BME280;8384;47.996;7.786;2022-10-19T06:11:42;99520.50;;;12.63;100.00
16544;BME280;8384;47.996;7.786;2022-10-19T06:14:11;99544.97;;;12.92;100.00
16544;BME280;8384;47.996;7.786;2022-10-19T06:16:37;99541.63;;;12.84;100.00
16544;BME280;8384;47.996;7.786;2022-10-19T06:19:03;99504.81;;;12.58;100.00
16544;BME280;8384;47.996;7.786;2022-10-19T06:21:30;99550.94;;;12.83;100.00
16544;BME280;8384;47.996;7.786;2022-10-19T06:23:58;99544.25;;;12.74;100.00
16544;BME280;8384;47.996;7.786;2022-10-19T06:26:24;99551.06;;;12.71;100.00
16544;BME280;8384;47.996;7.786;2022-10-19T06:28:50;99556.16;;;12.85;100.00
16544;BME280;8384;47.996;7.786;2022-10-19T06:31:18;99546.00;;;12.85;100.00
16544;BME280;8384;47.996;7.786;2022-10-19T06:33:44;99538.41;;;12.93;100.00
16544;BME280;8384;47.996;7.786;2022-10-19T06:36:12;99547.22;;;12.95;100.00
16544;BME280;8384;47.996;7.786;2022-10-19T06:38:38;99547.56;;;13.03;100.00
16544;BME280;8384;47.996;7.786;2022-10-19T06:41:03;99553.06;;;13.03;100.00
16544;BME280;8384;47.996;7.786;2022-10-19T06:43:29;99520.34;;;12.97;100.00
16544;BME280;8384;47.996;7.786;2022-10-19T06:45:54;99549.88;;;13.12;100.00
16544;BME280;8384;47.996;7.786;2022-10-19T06:48:20;99550.69;;;13.12;100.00
16544;BME280;8384;47.996;7.786;2022-10-19T06:50:45;99541.84;;;13.05;100.00
16544;BME280;8384;47.996;7.786;2022-10-19T06:53:11;99560.00;;;13.11;100.00
16544;BME280;8384;47.996;7.786;2022-10-19T06:55:36;99557.88;;;13.18;100.00
16544;BME280;8384;47.996;7.786;2022-10-19T06:58:02;99532.56;;;13.11;100.00
16544;BME280;8384;47.996;7.786;2022-10-19T07:00:28;99541.38;;;13.13;100.00
16544;BME280;8384;47.996;7.786;2022-10-19T07:02:54;99549.81;;;13.34;100.00
16544;BME280;8384;47.996;7.786;2022-10-19T07:05:19;99555.31;;;13.34;100.00
16544;BME280;8384;47.996;7.786;2022-10-19T07:07:45;99549.81;;;13.34;100.00
16544;BME280;8384;47.996;7.786;2022-10-19T07:10:11;99561.91;;;13.38;100.00
16544;BME280;8384;47.996;7.786;2022-10-19T07:12:36;99554.41;;;13.50;100.00
16544;BME280;8384;47.996;7.786;2022-10-19T07:15:02;99552.69;;;13.44;100.00
16544;BME280;8384;47.996;7.786;2022-10-19T07:17:27;99547.31;;;13.32;100.00
16544;BME280;8384;47.996;7.786;2022-10-19T07:19:52;99557.69;;;13.25;100.00
16544;BME280;8384;47.996;7.786;2022-10-19T07:22:19;99560.13;;;13.22;100.00
16544;BME280;8384;47.996;7.786;2022-10-19T07:24:44;99553.31;;;13.24;100.00
16544;BME280;8384;47.996;7.786;2022-10-19T07:27:09;99555.47;;;13.22;100.00
16544;BME280;8384;47.996;7.786;2022-10-19T07:29:35;99549.81;;;13.07;100.00
16544;BME280;8384;47.996;7.786;2022-10-19T07:32:00;99565.19;;;13.08;100.00
16544;BME280;8384;47.996;7.786;2022-10-19T07:34:25;99561.56;;;13.02;100.00
16544;BME280;8384;47.996;7.786;2022-10-19T07:36:50;99542.75;;;12.88;100.00
16544;BME280;8384;47.996;7.786;2022-10-19T07:39:16;99560.16;;;12.99;100.00
16544;BME280;8384;47.996;7.786;2022-10-19T07:41:42;99525.41;;;12.83;100.00
16544;BME280;8384;47.996;7.786;2022-10-19T07:44:07;99526.44;;;12.77;100.00
16544;BME280;8384;47.996;7.786;2022-10-19T07:46:33;99546.84;;;12.64;100.00
16544;BME280;8384;47.996;7.786;2022-10-19T07:49:00;99551.25;;;12.65;100.00
16544;BME280;8384;47.996;7.786;2022-10-19T07:51:25;99555.84;;;12.81;100.00
16544;BME280;8384;47.996;7.786;2022-10-19T07:53:51;99554.81;;;12.87;100.00
16544;BME280;8384;47.996;7.786;2022-10-19T07:56:19;99542.94;;;12.82;100.00
16544;BME280;8384;47.996;7.786;2022-10-19T07:58:45;99556.88;;;12.97;100.00
16544;BME280;8384;47.996;7.786;2022-10-19T08:01:13;99531.16;;;12.81;100.00
16544;BME280;8384;47.996;7.786;2022-10-19T08:03:39;99557.94;;;12.96;100.00
16544;BME280;8384;47.996;7.786;2022-10-19T08:06:07;99537.22;;;12.83;100.00
16544;BME280;8384;47.996;7.786;2022-10-19T08:08:33;99558.47;;;12.93;100.00
16544;BME280;8384;47.996;7.786;2022-10-19T08:11:06;99548.63;;;12.97;100.00
16544;BME280;8384;47.996;7.786;2022-10-19T08:13:32;99556.38;;;13.05;100.00
16544;BME280;8384;47.996;7.786;2022-10-19T08:15:58;99555.94;;;13.14;100.00
16544;BME280;8384;47.996;7.786;2022-10-19T08:18:23;99546.25;;;13.06;100.00
16544;BME280;8384;47.996;7.786;2022-10-19T08:20:48;99552.66;;;13.17;100.00
16544;BME280;8384;47.996;7.786;2022-10-19T08:23:14;99565.41;;;13.01;100.00
16544;BME280;8384;47.996;7.786;2022-10-19T08:25:39;99571.19;;;13.04;100.00
16544;BME280;8384;47.996;7.786;2022-10-19T08:28:04;99568.22;;;13.06;100.00
16544;BME280;8384;47.996;7.786;2022-10-19T08:30:30;99548.31;;;12.94;100.00
16544;BME280;8384;47.996;7.786;2022-10-19T08:32:55;99556.38;;;13.05;100.00
16544;BME280;8384;47.996;7.786;2022-10-19T08:35:20;99567.28;;;13.23;100.00
16544;BME280;8384;47.996;7.786;2022-10-19T08:37:46;99562.19;;;13.37;100.00
16544;BME280;8384;47.996;7.786;2022-10-19T08:40:23;99549.63;;;13.41;100.00
16544;BME280;8384;47.996;7.786;2022-10-19T08:48:23;99551.06;;;13.48;100.00
16544;BME280;8384;47.996;7.786;2022-10-19T08:50:49;99527.66;;;13.41;100.00
16544;BME280;8384;47.996;7.786;2022-10-19T08:53:26;99547.94;;;13.67;100.00
16544;BME280;8384;47.996;7.786;2022-10-19T08:58:49;99556.66;;;13.59;100.00
16544;BME280;8384;47.996;7.786;2022-10-19T09:06:40;99540.34;;;13.79;100.00
16544;BME280;8384;47.996;7.786;2022-10-19T09:09:11;99513.34;;;13.71;100.00
16544;BME280;8384;47.996;7.786;2022-10-19T09:11:41;99535.19;;;13.88;100.00
16544;BME280;8384;47.996;7.786;2022-10-19T09:14:30;99530.38;;;14.11;100.00
16544;BME280;8384;47.996;7.786;2022-10-19T09:17:02;99526.06;;;14.20;100.00
16544;BME280;8384;47.996;7.786;2022-10-19T09:19:33;99534.91;;;14.28;100.00
16544;BME280;8384;47.996;7.786;2022-10-19T09:22:11;99537.97;;;14.36;100.00
16544;BME280;8384;47.996;7.786;2022-10-19T09:24:44;99536.00;;;14.27;100.00
16544;BME280;8384;47.996;7.786;2022-10-19T09:27:24;99536.91;;;14.43;100.00
16544;BME280;8384;47.996;7.786;2022-10-19T09:29:55;99529.72;;;14.36;100.00
16544;BME280;8384;47.996;7.786;2022-10-19T09:32:26;99496.03;;;14.08;100.00
16544;BME280;8384;47.996;7.786;2022-10-19T09:35:00;99530.66;;;14.09;100.00
16544;BME280;8384;47.996;7.786;2022-10-19T09:37:28;99530.91;;;14.08;100.00
16544;BME280;8384;47.996;7.786;2022-10-19T09:39:54;99527.72;;;14.21;100.00
16544;BME280;8384;47.996;7.786;2022-10-19T09:42:26;99521.19;;;14.38;100.00
16544;BME280;8384;47.996;7.786;2022-10-19T09:44:59;99528.84;;;14.31;100.00
16544;BME280;8384;47.996;7.786;2022-10-19T09:47:35;99529.13;;;14.29;100.00
16544;BME280;8384;47.996;7.786;2022-10-19T09:50:33;99527.53;;;14.38;100.00
16544;BME280;8384;47.996;7.786;2022-10-19T09:53:03;99526.34;;;14.24;100.00
16544;BME280;8384;47.996;7.786;2022-10-19T09:55:41;99504.31;;;14.14;100.00
16544;BME280;8384;47.996;7.786;2022-10-19T10:00:41;99514.81;;;14.27;100.00
16544;BME280;8384;47.996;7.786;2022-10-19T10:03:24;99524.69;;;13.80;100.00
16544;BME280;8384;47.996;7.786;2022-10-19T10:05:50;99501.03;;;13.79;100.00
16544;BME280;8384;47.996;7.786;2022-10-19T10:08:19;99521.31;;;14.10;100.00
16544;BME280;8384;47.996;7.786;2022-10-19T10:10:52;99509.81;;;14.14;100.00
16544;BME280;8384;47.996;7.786;2022-10-19T10:13:20;99511.53;;;14.30;100.00
16544;BME280;8384;47.996;7.786;2022-10-19T10:15:50;99515.44;;;14.39;100.00
16544;BME280;8384;47.996;7.786;2022-10-19T10:18:18;99514.69;;;14.54;100.00
16544;BME280;8384;47.996;7.786;2022-10-19T10:20:56;99488.19;;;14.38;100.00
16544;BME280;8384;47.996;7.786;2022-10-19T10:23:25;99491.47;;;14.35;100.00
16544;BME280;8384;47.996;7.786;2022-10-19T10:25:55;99501.94;;;14.38;100.00
16544;BME280;8384;47.996;7.786;2022-10-19T10:28:22;99474.66;;;14.26;100.00
16544;BME280;8384;47.996;7.786;2022-10-19T10:30:53;99500.28;;;14.37;100.00
16544;BME280;8384;47.996;7.786;2022-10-19T10:33:25;99505.31;;;14.61;100.00
16544;BME280;8384;47.996;7.786;2022-10-19T10:35:55;99504.06;;;14.84;100.00
16544;BME280;8384;47.996;7.786;2022-10-19T10:38:46;99499.13;;;14.96;100.00
16544;BME280;8384;47.996;7.786;2022-10-19T10:41:16;99503.50;;;14.82;100.00
16544;BME280;8384;47.996;7.786;2022-10-19T10:43:54;99499.00;;;14.60;100.00
16544;BME280;8384;47.996;7.786;2022-10-19T10:46:24;99489.31;;;14.47;100.00
16544;BME280;8384;47.996;7.786;2022-10-19T10:48:54;99498.28;;;14.85;100.00
16544;BME280;8384;47.996;7.786;2022-10-19T10:51:26;99490.56;;;14.88;100.00
16544;BME280;8384;47.996;7.786;2022-10-19T10:56:38;99475.75;;;15.14;100.00
16544;BME280;8384;47.996;7.786;2022-10-19T10:59:20;99463.66;;;15.26;100.00
16544;BME280;8384;47.996;7.786;2022-10-19T11:02:10;99471.09;;;15.30;100.00
16544;BME280;8384;47.996;7.786;2022-10-19T11:05:00;99455.66;;;15.14;100.00
16544;BME280;8384;47.996;7.786;2022-10-19T11:07:29;99469.44;;;15.19;100.00
16544;BME280;8384;47.996;7.786;2022-10-19T11:10:03;99451.25;;;15.03;100.00
16544;BME280;8384;47.996;7.786;2022-10-19T11:12:46;99457.84;;;15.07;100.00
16544;BME280;8384;47.996;7.786;2022-10-19T11:15:27;99447.91;;;14.80;100.00
16544;BME280;8384;47.996;7.786;2022-10-19T11:18:02;99426.09;;;14.63;100.00
16544;BME280;8384;47.996;7.786;2022-10-19T11:20:31;99428.59;;;14.64;100.00
16544;BME280;8384;47.996;7.786;2022-10-19T11:23:34;99435.25;;;14.79;100.00
16544;BME280;8384;47.996;7.786;2022-10-19T11:29:14;99431.16;;;15.12;100.00
16544;BME280;8384;47.996;7.786;2022-10-19T11:31:50;99364.78;;;14.73;100.00
16544;BME280;8384;47.996;7.786;2022-10-19T11:34:43;99405.00;;;15.15;100.00
16544;BME280;8384;47.996;7.786;2022-10-19T11:42:54;99411.06;;;15.17;100.00
16544;BME280;8384;47.996;7.786;2022-10-19T11:45:44;99405.53;;;14.81;100.00
16544;BME280;8384;47.996;7.786;2022-10-19T11:48:34;99397.00;;;14.88;100.00
16544;BME280;8384;47.996;7.786;2022-10-19T11:51:12;99389.84;;;14.87;100.00
16544;BME280;8384;47.996;7.786;2022-10-19T11:56:49;99370.56;;;15.18;100.00
16544;BME280;8384;47.996;7.786;2022-10-19T12:00:05;99381.03;;;15.21;100.00
16544;BME280;8384;47.996;7.786;2022-10-19T12:06:00;99376.34;;;15.06;100.00
16544;BME280;8384;47.996;7.786;2022-10-19T12:08:41;99371.94;;;14.99;100.00
16544;BME280;8384;47.996;7.786;2022-10-19T12:14:16;99340.03;;;14.93;100.00
16544;BME280;8384;47.996;7.786;2022-10-19T12:16:46;99355.16;;;14.96;100.00
16544;BME280;8384;47.996;7.786;2022-10-19T12:19:18;99356.00;;;14.91;100.00
16544;BME280;8384;47.996;7.786;2022-10-19T12:21:46;99327.03;;;14.58;100.00
16544;BME280;8384;47.996;7.786;2022-10-19T12:24:16;99335.59;;;14.72;100.00
16544;BME280;8384;47.996;7.786;2022-10-19T12:26:43;99319.09;;;14.77;100.00
16544;BME280;8384;47.996;7.786;2022-10-19T12:29:23;99337.25;;;14.98;100.00
16544;BME280;8384;47.996;7.786;2022-10-19T12:31:50;99331.78;;;14.83;100.00
16544;BME280;8384;47.996;7.786;2022-10-19T12:37:02;99326.78;;;15.26;100.00
16544;BME280;8384;47.996;7.786;2022-10-19T12:42:28;99325.59;;;15.53;100.00
16544;BME280;8384;47.996;7.786;2022-10-19T12:45:09;99309.59;;;15.60;100.00
16544;BME280;8384;47.996;7.786;2022-10-19T12:47:38;99304.97;;;15.51;100.00
16544;BME280;8384;47.996;7.786;2022-10-19T12:50:04;99319.59;;;15.36;100.00
16544;BME280;8384;47.996;7.786;2022-10-19T12:52:47;99322.66;;;15.34;100.00
16544;BME280;8384;47.996;7.786;2022-10-19T12:57:43;99298.16;;;15.02;100.00
16544;BME280;8384;47.996;7.786;2022-10-19T13:00:32;99299.28;;;15.06;100.00
16544;BME280;8384;47.996;7.786;2022-10-19T13:05:31;99295.97;;;15.19;100.00
16544;BME280;8384;47.996;7.786;2022-10-19T13:08:00;99290.47;;;14.67;100.00
16544;BME280;8384;47.996;7.786;2022-10-19T13:10:27;99247.84;;;14.49;100.00
16544;BME280;8384;47.996;7.786;2022-10-19T13:12:53;99291.03;;;14.95;100.00
16544;BME280;8384;47.996;7.786;2022-10-19T13:18:08;99282.47;;;14.61;100.00
16544;BME280;8384;47.996;7.786;2022-10-19T13:25:30;99275.31;;;15.11;100.00
16544;BME280;8384;47.996;7.786;2022-10-19T13:43:23;99266.28;;;15.77;100.00
16544;BME280;8384;47.996;7.786;2022-10-19T13:46:11;99255.13;;;15.47;100.00
16544;BME280;8384;47.996;7.786;2022-10-19T13:48:55;99256.84;;;15.22;100.00
16544;BME280;8384;47.996;7.786;2022-10-19T13:52:02;99264.03;;;15.18;100.00
16544;BME280;8384;47.996;7.786;2022-10-19T13:55:10;99227.69;;;15.06;100.00
16544;BME280;8384;47.996;7.786;2022-10-19T14:09:04;99255.16;;;15.97;100.00
16544;BME280;8384;47.996;7.786;2022-10-19T14:11:39;99261.97;;;16.15;99.96
16544;BME280;8384;47.996;7.786;2022-10-19T14:16:34;99261.97;;;15.60;100.00
16544;BME280;8384;47.996;7.786;2022-10-19T14:19:12;99265.69;;;15.85;100.00
16544;BME280;8384;47.996;7.786;2022-10-19T14:21:38;99246.97;;;15.87;100.00
16544;BME280;8384;47.996;7.786;2022-10-19T14:24:18;99246.63;;;15.99;100.00
16544;BME280;8384;47.996;7.786;2022-10-19T14:26:45;99248.97;;;16.16;99.86
16544;BME280;8384;47.996;7.786;2022-10-19T14:29:11;99247.78;;;15.87;100.00
16544;BME280;8384;47.996;7.786;2022-10-19T14:31:37;99241.78;;;15.75;100.00
16544;BME280;8384;47.996;7.786;2022-10-19T14:34:03;99244.56;;;15.65;100.00
16544;BME280;8384;47.996;7.786;2022-10-19T14:36:43;99240.94;;;15.69;100.00
16544;BME280;8384;47.996;7.786;2022-10-19T14:39:21;99241.22;;;15.73;100.00
16544;BME280;8384;47.996;7.786;2022-10-19T14:41:52;99203.34;;;15.39;100.00
16544;BME280;8384;47.996;7.786;2022-10-19T14:47:00;99239.72;;;15.41;100.00
16544;BME280;8384;47.996;7.786;2022-10-19T14:49:25;99241.31;;;15.52;100.00
16544;BME280;8384;47.996;7.786;2022-10-19T14:51:54;99226.97;;;15.55;100.00
16544;BME280;8384;47.996;7.786;2022-10-19T14:54:30;99228.13;;;15.44;100.00
16544;BME280;8384;47.996;7.786;2022-10-19T14:57:07;99236.66;;;15.48;100.00